createdAt,value
2018-12-11T00:01:12.267Z,100
2018-12-11T00:06:12.188Z,100
2018-12-11T00:11:12.228Z,100
2018-12-11T00:16:12.059Z,100
2018-12-11T00:21:12.152Z,99.4
2018-12-11T00:26:12.077Z,99.2
2018-12-11T00:31:12.272Z,98.3
2018-12-11T00:36:12.302Z,97.4
2018-12-11T00:41:12.215Z,97.1
2018-12-11T00:46:12.290Z,95.9
2018-12-11T00:51:12.135Z,95.3
2018-12-11T00:56:12.219Z,95.6
2018-12-11T01:01:12.068Z,94.9
2018-12-11T01:06:12.329Z,94.8
2018-12-11T01:11:12.211Z,95.1
2018-12-11T01:16:12.034Z,95.4
2018-12-11T01:21:12.287Z,95.6
2018-12-11T01:26:12.087Z,95.8
2018-12-11T01:31:12.211Z,95.6
2018-12-11T01:36:12.098Z,97.1
2018-12-11T01:41:12.333Z,96.6
2018-12-11T01:46:12.244Z,96.9
2018-12-11T01:51:12.304Z,97.6
2018-12-11T01:56:12.337Z,96.5
2018-12-11T02:01:12.249Z,97.2
2018-12-11T02:06:12.297Z,96.6
2018-12-11T02:11:12.331Z,97.8
2018-12-11T02:16:12.250Z,98
2018-12-11T02:21:12.516Z,97.6
2018-12-11T02:26:12.114Z,97.7
2018-12-11T02:31:12.250Z,97.7
2018-12-11T02:36:12.290Z,97.7
2018-12-11T02:41:12.331Z,97.3
2018-12-11T02:46:12.137Z,96.9
2018-12-11T02:51:12.121Z,96.3
2018-12-11T02:56:12.137Z,96.3
2018-12-11T03:01:12.125Z,97.1
2018-12-11T03:06:12.281Z,96.3
2018-12-11T03:11:12.316Z,96.5
2018-12-11T03:16:12.373Z,96
2018-12-11T03:21:12.298Z,95.4
2018-12-11T03:26:12.330Z,95.3
2018-12-11T03:31:12.250Z,95
2018-12-11T03:36:12.161Z,95.1
2018-12-11T03:41:12.347Z,95.3
2018-12-11T03:46:12.374Z,96.6
2018-12-11T03:51:12.394Z,98.1
2018-12-11T03:56:12.318Z,100
2018-12-11T04:01:12.354Z,100
2018-12-11T04:06:12.401Z,100
2018-12-11T04:11:12.305Z,100
2018-12-11T04:16:12.357Z,100
2018-12-11T04:21:12.160Z,100
2018-12-11T04:26:12.199Z,100
2018-12-11T04:31:12.179Z,100
2018-12-11T04:36:12.406Z,100
2018-12-11T04:41:12.185Z,100
2018-12-11T04:46:12.366Z,100
2018-12-11T04:51:12.197Z,100
2018-12-11T04:56:12.179Z,100
2018-12-11T05:01:12.340Z,100
2018-12-11T05:06:12.359Z,100
2018-12-11T05:11:12.200Z,100
2018-12-11T05:16:12.366Z,100
2018-12-11T05:21:12.403Z,100
2018-12-11T05:26:12.445Z,100
2018-12-11T05:31:12.359Z,100
2018-12-11T05:36:12.186Z,100
2018-12-11T05:41:12.441Z,100
2018-12-11T05:46:12.478Z,100
2018-12-11T05:51:13.274Z,100
2018-12-11T05:56:12.240Z,100
2018-12-11T06:01:12.236Z,100
2018-12-11T06:06:12.391Z,100
2018-12-11T06:11:12.436Z,100
2018-12-11T06:16:12.427Z,100
2018-12-11T06:21:12.614Z,100
2018-12-11T06:26:12.237Z,100
2018-12-11T06:31:12.456Z,100
2018-12-11T06:36:12.397Z,100
2018-12-11T06:41:12.417Z,100
2018-12-11T06:46:13.503Z,100
2018-12-11T06:51:12.262Z,100
2018-12-11T06:56:12.447Z,100
2018-12-11T07:01:12.461Z,100
2018-12-11T07:06:12.267Z,100
2018-12-11T07:11:12.412Z,100
2018-12-11T07:16:12.446Z,100
2018-12-11T07:21:12.268Z,100
2018-12-11T07:26:12.417Z,100
2018-12-11T07:31:12.285Z,100
2018-12-11T07:36:12.494Z,100
2018-12-11T07:41:12.415Z,100
2018-12-11T07:46:12.485Z,100
2018-12-11T07:51:12.282Z,100
2018-12-11T07:56:12.531Z,100
2018-12-11T08:01:12.449Z,100
2018-12-11T08:06:12.285Z,100
2018-12-11T08:11:12.276Z,100
2018-12-11T08:16:12.447Z,100
2018-12-11T08:21:12.497Z,100
2018-12-11T08:26:12.522Z,100
2018-12-11T08:31:12.444Z,99.9
2018-12-11T08:36:12.319Z,100
2018-12-11T08:41:15.390Z,100
2018-12-11T08:46:12.452Z,100
2018-12-11T08:51:12.522Z,100
2018-12-11T08:56:12.297Z,100
2018-12-11T09:01:12.348Z,100
2018-12-11T09:06:12.482Z,100
2018-12-11T09:11:12.318Z,100
2018-12-11T09:16:12.352Z,100
2018-12-11T09:21:12.340Z,100
2018-12-11T09:26:12.351Z,100
2018-12-11T09:31:12.336Z,100
2018-12-11T09:36:12.344Z,100
2018-12-11T09:41:12.543Z,100
2018-12-11T09:46:12.570Z,100
2018-12-11T09:51:18.081Z,100
2018-12-11T09:56:12.519Z,100
2018-12-11T10:01:12.335Z,100
2018-12-11T10:06:12.351Z,100
2018-12-11T10:11:12.354Z,100
2018-12-11T10:16:12.384Z,100
2018-12-11T10:21:12.607Z,100
2018-12-11T10:26:12.513Z,100
2018-12-11T10:31:12.576Z,100
2018-12-11T10:36:12.591Z,100
2018-12-11T10:41:12.386Z,100
2018-12-11T10:46:13.603Z,100
2018-12-11T10:51:12.505Z,100
2018-12-11T10:56:12.376Z,100
2018-12-11T11:01:12.563Z,100
2018-12-11T11:06:12.604Z,100
2018-12-11T11:11:12.380Z,100
2018-12-11T11:16:12.382Z,100
2018-12-11T11:21:12.413Z,100
2018-12-11T11:26:12.395Z,100
2018-12-11T11:31:12.551Z,100
2018-12-11T11:36:12.400Z,100
2018-12-11T11:41:12.646Z,100
2018-12-11T11:46:12.539Z,100
2018-12-11T11:51:12.515Z,100
2018-12-11T11:56:12.397Z,100
2018-12-11T12:01:12.564Z,99.5
2018-12-11T12:06:12.597Z,98.6
2018-12-11T12:11:12.615Z,98.3
2018-12-11T12:16:12.544Z,98.1
2018-12-11T12:21:12.589Z,97.7
2018-12-11T12:26:12.610Z,97.4
2018-12-11T12:31:12.683Z,96.9
2018-12-11T12:36:12.586Z,96.4
2018-12-11T12:41:12.608Z,95.9
2018-12-11T12:46:12.668Z,95.8
2018-12-11T12:51:12.578Z,95.9
2018-12-11T12:56:12.635Z,95.8
2018-12-11T13:01:12.674Z,95.8
2018-12-11T13:06:12.639Z,94.5
2018-12-11T13:11:12.444Z,94.6
2018-12-11T13:16:13.258Z,94.2
2018-12-11T13:21:12.565Z,93.9
2018-12-11T13:26:12.469Z,93.1
2018-12-11T13:31:12.683Z,93
2018-12-11T13:36:12.546Z,92.8
2018-12-11T13:41:12.556Z,92.4
2018-12-11T13:46:12.817Z,92.6
2018-12-11T13:51:12.589Z,92.2
2018-12-11T13:56:12.622Z,92.2
2018-12-11T14:01:12.669Z,91.8
2018-12-11T14:06:12.699Z,91
2018-12-11T14:11:12.675Z,90.6
2018-12-11T14:16:12.646Z,89.4
2018-12-11T14:21:12.508Z,89.4
2018-12-11T14:26:12.632Z,89.7
2018-12-11T14:31:12.637Z,88.6
2018-12-11T14:36:12.671Z,88.4
2018-12-11T14:41:12.744Z,88.3
2018-12-11T14:46:12.474Z,87.7
2018-12-11T14:51:12.698Z,87.4
2018-12-11T14:56:12.727Z,88.1
2018-12-11T15:01:12.666Z,87.8
2018-12-11T15:06:12.666Z,87.3
2018-12-11T15:11:12.469Z,87.5
2018-12-11T15:16:12.638Z,87.3
2018-12-11T15:21:12.674Z,87.8
2018-12-11T15:26:12.646Z,87.1
2018-12-11T15:31:13.636Z,86.4
2018-12-11T15:36:12.689Z,85.8
2018-12-11T15:41:12.709Z,85.2
2018-12-11T15:46:12.534Z,86.2
2018-12-11T15:51:12.687Z,86.6
2018-12-11T15:56:12.736Z,87
2018-12-11T16:01:12.777Z,86.8
2018-12-11T16:06:12.679Z,87.1
2018-12-11T16:11:12.732Z,87.2
2018-12-11T16:16:12.550Z,85.9
2018-12-11T16:21:12.547Z,86.2
2018-12-11T16:26:12.567Z,86.3
2018-12-11T16:31:12.566Z,86.1
2018-12-11T16:36:12.544Z,85.8
2018-12-11T16:41:12.600Z,87.1
2018-12-11T16:46:12.644Z,87
2018-12-11T16:51:12.603Z,87.2
2018-12-11T16:56:12.581Z,87
2018-12-11T17:01:13.570Z,87
2018-12-11T17:06:12.617Z,87.5
2018-12-11T17:11:12.608Z,87.3
2018-12-11T17:16:13.431Z,87
2018-12-11T17:21:12.582Z,87.5
2018-12-11T17:26:12.620Z,87.9
2018-12-11T17:31:13.729Z,88.1
2018-12-11T17:36:12.596Z,87.9
2018-12-11T17:41:12.586Z,87.9
2018-12-11T17:46:12.669Z,87.9
2018-12-11T17:51:12.611Z,87.9
2018-12-11T17:56:12.592Z,87.3
2018-12-11T18:01:12.589Z,87.7
2018-12-11T18:06:12.919Z,87.3
2018-12-11T18:11:12.582Z,87.8
2018-12-11T18:16:12.650Z,88.3
2018-12-11T18:21:13.637Z,88.3
2018-12-11T18:26:12.619Z,88.8
2018-12-11T18:31:12.616Z,89.1
2018-12-11T18:36:12.665Z,89.7
2018-12-11T18:41:12.844Z,89.5
2018-12-11T18:46:12.771Z,90.1
2018-12-11T18:51:12.671Z,90.8
2018-12-11T18:56:12.616Z,91.3
2018-12-11T19:01:12.607Z,91.8
2018-12-11T19:06:12.709Z,92.5
2018-12-11T19:11:12.747Z,93.4
2018-12-11T19:16:13.559Z,93.6
2018-12-11T19:21:12.758Z,93.7
2018-12-11T19:26:12.725Z,94.1
2018-12-11T19:31:12.749Z,95
2018-12-11T19:36:12.714Z,96.2
2018-12-11T19:41:12.760Z,96.8
2018-12-11T19:46:12.733Z,97.5
2018-12-11T19:51:12.742Z,97.9
2018-12-11T19:56:12.911Z,98
2018-12-11T20:01:12.928Z,98.3
2018-12-11T20:06:12.744Z,98.4
2018-12-11T20:11:12.757Z,99
2018-12-11T20:16:13.967Z,100
2018-12-11T20:21:12.735Z,100
2018-12-11T20:26:12.912Z,100
2018-12-11T20:31:12.771Z,100
2018-12-11T20:36:12.836Z,100
2018-12-11T20:41:12.756Z,100
2018-12-11T20:46:12.775Z,100
2018-12-11T20:51:12.884Z,100
2018-12-11T20:56:12.765Z,100
2018-12-11T21:01:12.846Z,100
2018-12-11T21:06:12.763Z,100
2018-12-11T21:11:15.648Z,100
2018-12-11T21:16:12.917Z,100
2018-12-11T21:21:12.759Z,100
2018-12-11T21:26:12.807Z,100
2018-12-11T21:31:12.808Z,100
2018-12-11T21:36:12.699Z,100
2018-12-11T21:41:12.712Z,100
2018-12-11T21:46:12.734Z,100
2018-12-11T21:51:12.758Z,100
2018-12-11T21:56:12.789Z,100
2018-12-11T22:01:12.715Z,100
2018-12-11T22:06:12.769Z,100
2018-12-11T22:11:12.721Z,100
2018-12-11T22:16:13.051Z,100
2018-12-11T22:21:12.763Z,100
2018-12-11T22:26:12.843Z,100
2018-12-11T22:31:12.691Z,100
2018-12-11T22:36:12.745Z,100
2018-12-11T22:41:12.753Z,100
2018-12-11T22:46:12.865Z,100
2018-12-11T22:51:12.843Z,100
2018-12-11T22:56:12.824Z,100
2018-12-11T23:01:12.764Z,100
2018-12-11T23:06:13.782Z,100
2018-12-11T23:11:12.870Z,100
2018-12-11T23:16:12.861Z,100
2018-12-11T23:21:12.869Z,100
2018-12-11T23:26:12.877Z,100
2018-12-11T23:31:12.862Z,100
2018-12-11T23:36:12.874Z,100
2018-12-11T23:41:12.882Z,100
2018-12-11T23:46:12.771Z,100
2018-12-11T23:51:12.757Z,100
2018-12-11T23:56:12.903Z,100
